Home > Products > Valid Products > TAF

000
FTUS44 KEPZ 242300
TAFDMN
TAF
KDMN 242320Z 2500/2524 22005KT P6SM SKC
     FM250200 31005KT P6SM SKC
     FM252100 23008KT P6SM FEW250=



000
FTUS44 KEPZ 242300
TAFTCS
TAF
KTCS 242320Z 2500/2524 15007KT P6SM SKC
     FM250300 31006KT P6SM SKC
     FM252100 18008KT P6SM FEW250=



000
FTUS44 KEPZ 242300
TAFELP
TAF
KELP 242320Z 2500/2524 22005KT P6SM SKC
     FM250200 VRB05KT P6SM SKC
     FM251800 22007KT P6SM FEW250=



000
FTUS44 KEPZ 241700 RRA
TAFDMN
TAF
KDMN 241742Z 2418/2518 22005KT P6SM FEW060
     FM250200 31005KT P6SM SKC=



000
FTUS44 KEPZ 241700 RRA
TAFTCS
TAF
KTCS 241742Z 2418/2518 15007KT P6SM FEW060
     FM250300 31006KT P6SM SKC=



000
FTUS44 KEPZ 241700 RRA
TAFELP
TAF
KELP 241742Z 2418/2518 22005KT P6SM FEW060
     FM250200 VRB05KT P6SM SKC=



000
FTUS44 KEPZ 241100
TAFTCS
TAF
KTCS 241131Z 2412/2512 30006KT P6SM FEW250
     FM241900 19009KT P6SM FEW060 SCT250
     FM250400 30007KT P6SM FEW250=



000
FTUS44 KEPZ 241100
TAFELP
TAF
KELP 241131Z 2412/2512 VRB04KT P6SM SKC
     FM241900 16007KT P6SM FEW070 FEW250=



000
FTUS44 KEPZ 241100
TAFDMN
TAF
KDMN 241131Z 2412/2512 VRB04KT P6SM SKC
     FM241900 15007KT P6SM FEW070 FEW250=



000
FTUS44 KEPZ 240500
TAFDMN
TAF
KDMN 240527Z 2406/2506 29006KT P6SM FEW250
     FM241700 16007KT P6SM FEW070 FEW250
     FM242000 19007KT P6SM FEW070 FEW250
     FM250400 31007KT P6SM FEW250=



000
FTUS44 KEPZ 240500
TAFTCS
TAF
KTCS 240527Z 2406/2506 30006KT P6SM FEW250
     FM241700 15007KT P6SM FEW060 FEW250
     FM242300 19008KT P6SM FEW060 FEW250
     FM250400 30007KT P6SM FEW250=



000
FTUS44 KEPZ 240500
TAFELP
TAF
KELP 240527Z 2406/2506 06005KT P6SM FEW250
     FM241700 19007KT P6SM FEW070 FEW250
     FM242100 23007KT P6SM FEW070 SCT250
     FM250500 05005KT P6SM FEW250=



000
FTUS44 KEPZ 232300
TAFDMN
TAF
KDMN 232320Z 2400/2424 21006KT P6SM FEW050 FEW250
     FM240400 29006KT P6SM FEW250
     FM241700 16007KT P6SM FEW070 FEW250
     FM242000 19007KT P6SM FEW070 FEW250=



000
FTUS44 KEPZ 232300
TAFTCS
TAF
KTCS 232320Z 2400/2424 19006KT P6SM FEW040 FEW250
     FM240400 30006KT P6SM FEW250
     FM241700 15007KT P6SM FEW060 FEW250
     FM242300 19008KT P6SM FEW060 FEW250=



000
FTUS44 KEPZ 232300
TAFELP
TAF
KELP 232320Z 2400/2424 24006KT P6SM FEW050 FEW250
     FM240400 06005KT P6SM FEW250
     FM241700 19007KT P6SM FEW070 FEW250
     FM242100 23007KT P6SM FEW070 SCT250=



000
FTUS44 KEPZ 231700
TAFELP
TAF
KELP 231739Z 2318/2418 24006KT P6SM FEW050 FEW250
     FM240400 06005KT P6SM FEW250
     FM241700 19007KT P6SM FEW050 FEW250=



000
FTUS44 KEPZ 231700
TAFDMN
TAF
KDMN 231739Z 2318/2418 21006KT P6SM FEW050 FEW250
     FM240400 29006KT P6SM FEW250
     FM241700 16007KT P6SM FEW050 FEW250=



000
FTUS44 KEPZ 231700
TAFELP
TAF
KELP 231739Z 2318/2418 24006KT P6SM FEW050 FEW250
     FM240400 06005KT P6SM FEW250
     FM241700 19007KT P6SM FEW050 FEW250=



000
FTUS44 KEPZ 231700
TAFTCS
TAF
KTCS 231739Z 2318/2418 16006KT P6SM FEW050 FEW250
     FM240400 30006KT P6SM FEW250
     FM241700 15007KT P6SM FEW050 FEW250=



000
FTUS44 KEPZ 231700
TAFTCS
TAF
KTCS 231739Z 2318/2418 16006KT P6SM FEW050 FEW250
     FM240400 30006KT P6SM FEW250
     FM241700 15007KT P6SM FEW050 FEW250=



000
FTUS44 KEPZ 231700
TAFDMN
TAF
KDMN 231739Z 2318/2418 21006KT P6SM FEW050 FEW250
     FM240400 29006KT P6SM FEW250
     FM241700 16007KT P6SM FEW050 FEW250=



000
FTUS44 KEPZ 231100
TAFDMN
TAF
KDMN 231120Z 2312/2412 VRB04KT P6SM SKC
     FM232000 22007KT P6SM FEW250
     FM240400 27005KT P6SM SKC=



000
FTUS44 KEPZ 231100
TAFELP
TAF
KELP 231120Z 2312/2412 02005KT P6SM SKC
     FM231700 VRB05KT P6SM FEW050 FEW250
     FM240400 06005KT P6SM SKC=



000
FTUS44 KEPZ 231100
TAFTCS
TAF
KTCS 231120Z 2312/2412 VRB05KT P6SM SKC
     FM231900 17005KT P6SM FEW250
     FM240400 32006KT P6SM SKC=



000
FTUS44 KEPZ 230500
TAFTCS
TAF
KTCS 230540Z 2306/2406 31006KT P6SM SKC
     FM231500 00000KT P6SM SKC
     FM231900 VRB05KT P6SM FEW250=



000
FTUS44 KEPZ 230500
TAFDMN
TAF
KDMN 230540Z 2306/2406 VRB04KT P6SM SKC
     FM232000 22007KT P6SM FEW250=



000
FTUS44 KEPZ 230500
TAFELP
TAF
KELP 230540Z 2306/2406 02005KT P6SM SKC
     FM231700 VRB05KT P6SM FEW250=



000
FTUS44 KEPZ 222300
TAFDMN
TAF
KDMN 222339Z 2300/2324 20006KT P6SM FEW060 FEW250
     FM230300 29007KT P6SM SKC
     FM232000 20007KT P6SM FEW060 FEW250=



000
FTUS44 KEPZ 222300
TAFELP
TAF
KELP 222339Z 2300/2324 VRB04KT P6SM FEW060 SCT250
     FM230300 04005KT P6SM FEW250
     FM231700 VRB05KT P6SM FEW250=



000
FTUS44 KEPZ 222300
TAFTCS
TAF
KTCS 222339Z 2300/2324 19006KT P6SM FEW080 SCT250
     FM230300 VRB05KT P6SM SKC
     FM230600 31006KT P6SM SKC
     FM231500 00000KT P6SM SKC=



000
FTUS44 KEPZ 221700 CCA
TAFELP
TAF COR
KELP 221757Z 2218/2318 14006KT P6SM SCT020 BKN035 BKN120
     FM221900 17006KT P6SM BKN040 BKN120
     FM222100 26007KT P6SM SCT040 SCT120
     FM230300 05007KT P6SM FEW050 FEW120
     FM231700 19007KT P6SM FEW060 FEW250=



000
FTUS44 KEPZ 221700 CCA
TAFELP
TAF COR
KELP 221757Z 2218/2318 14006KT P6SM SCT020 BKN035 BKN120
     FM221900 17006KT P6SM BKN040 BKN120
     FM222100 26007KT P6SM SCT040 SCT120
     FM230300 05007KT P6SM FEW050 FEW120
     FM231700 19007KT P6SM FEW060 FEW250=



000
FTUS44 KEPZ 221700 RRA
TAFTCS
TAF
KTCS 221754Z 2218/2318 17006KT P6SM SCT030 SCT120
     FM222100 19007KT P6SM SCT040 SCT120
     FM230300 25007KT P6SM FEW050
     FM230600 31006KT P6SM FEW050
     FM231700 15007KT P6SM FEW060 FEW250=



000
FTUS44 KEPZ 221700 RRA
TAFELP
TAF
KELP 221754Z 2218/2318 14006KT P6SM BKN025 BKN120
     FM221900 17006KT P6SM BKN035 BKN120
     FM222100 26007KT P6SM SCT040 SCT120
     FM230300 05007KT P6SM FEW050 FEW120
     FM231700 19007KT P6SM FEW060 FEW250=



000
FTUS44 KEPZ 221700 RRA
TAFDMN
TAF
KDMN 221754Z 2218/2318 VRB05KT P6SM FEW030
     FM222100 21007KT P6SM SCT040
     FM230300 29007KT P6SM FEW050
     FM231700 19007KT P6SM FEW060 FEW250=



000
FTUS44 KEPZ 221700 RRA
TAFDMN
TAF
KDMN 221754Z 2218/2318 VRB05KT P6SM FEW030
     FM222100 21007KT P6SM SCT040
     FM230300 29007KT P6SM FEW050
     FM231700 19007KT P6SM FEW060 FEW250=



000
FTUS44 KEPZ 221700 RRA
TAFELP
TAF
KELP 221754Z 2218/2318 14006KT P6SM BKN025 BKN120
     FM221900 17006KT P6SM BKN035 BKN120
     FM222100 26007KT P6SM SCT040 SCT120
     FM230300 05007KT P6SM FEW050 FEW120
     FM231700 19007KT P6SM FEW060 FEW250=



000
FTUS44 KEPZ 221700 RRA
TAFTCS
TAF
KTCS 221754Z 2218/2318 17006KT P6SM SCT030 SCT120
     FM222100 19007KT P6SM SCT040 SCT120
     FM230300 25007KT P6SM FEW050
     FM230600 31006KT P6SM FEW050
     FM231700 15007KT P6SM FEW060 FEW250=



000
FTUS44 KEPZ 221600 AAA
TAFELP
TAF AMD
KELP 221616Z 2216/2312 03006KT P6SM BKN025 BKN120 BKN250
     FM221700 VRB04KT P6SM FEW020 SCT050 SCT250
     FM230300 05005KT P6SM FEW120=



000
FTUS44 KEPZ 221100
TAFELP
TAF
KELP 221140Z 2212/2312 03006KT P6SM BKN020 BKN120 BKN250
     FM221500 VRB04KT P6SM FEW020 SCT050 SCT250
     FM230300 05005KT P6SM FEW120=



000
FTUS44 KEPZ 221100
TAFDMN
TAF
KDMN 221140Z 2212/2312 05006KT P6SM FEW060 SCT100 BKN250
     FM221400 VRB04KT P6SM FEW100 FEW250
     FM222000 14006KT P6SM FEW070 FEW250=



000
FTUS44 KEPZ 221100
TAFTCS
TAF
KTCS 221140Z 2212/2312 30005KT P6SM SCT120 BKN250
     FM221600 VRB04KT P6SM FEW040 SCT250
     FM222100 18005KT P6SM FEW070 FEW250
     FM230500 31005KT P6SM SKC=



000
FTUS44 KEPZ 220500
TAFDMN
TAF
KDMN 220520Z 2206/2306 05006KT P6SM FEW060 SCT100 BKN250
     FM221400 VRB04KT P6SM FEW100 FEW250
     FM222000 14006KT P6SM FEW070 FEW250=



000
FTUS44 KEPZ 220500
TAFTCS
TAF
KTCS 220520Z 2206/2306 30005KT P6SM SCT120 BKN250
     FM221600 VRB04KT P6SM FEW040 SCT250
     FM222100 18005KT P6SM FEW070 FEW250
     FM230500 31005KT P6SM SKC=



000
FTUS44 KEPZ 220500
TAFELP
TAF
KELP 220520Z 2206/2306 05005KT P6SM FEW060 SCT120
     FM220900 03006KT P6SM FEW015 SCT120 BKN250
     FM221600 VRB04KT P6SM FEW060 FEW250
     FM230300 05005KT P6SM FEW120=



000
FTUS44 KEPZ 220500
TAFDMN
TAF
KDMN 220520Z 2206/2306 05006KT P6SM FEW060 SCT100 BKN250
     FM221400 VRB04KT P6SM FEW100 FEW250
     FM222000 14006KT P6SM FEW070 FEW250=



000
FTUS44 KEPZ 220500
TAFTCS
TAF
KTCS 220520Z 2206/2306 30005KT P6SM SCT120 BKN250
     FM221600 VRB04KT P6SM FEW040 SCT250
     FM222100 18005KT P6SM FEW070 FEW250
     FM230500 31005KT P6SM SKC=



000
FTUS44 KEPZ 220500
TAFELP
TAF
KELP 220520Z 2206/2306 05005KT P6SM FEW060 SCT120
     FM220900 03006KT P6SM FEW015 SCT120 BKN250
     FM221600 VRB04KT P6SM FEW060 FEW250
     FM230300 05005KT P6SM FEW120=



    US Dept of Commerce
    National Oceanic and Atmospheric Administration
    National Weather Service
    1325 East West Highway
    Silver Spring, MD 20910
    Page Author: NWS Internet Services Team
Disclaimer
Information Quality
Credits
Glossary
Privacy Policy
Freedom of Information Act (FOIA)
About Us
Career Opportunities